Time;durP1;ratioP1;P1;durP2;ratioP2;P2;SDS_P1;SDS_P2;PMS_P1;PMS_P2;Temp;Humidity;BMP_temperature;BMP_pressure;BME280_temperature;BME280_humidity;BME280_pressure;Samples;Min_cycle;Max_cycle;Signal;HPM_P1;HPM_P2
2022/12/12 00:01:38;;;;;;;0.10;0.10;;;1.30;99.90;;;;;;5085952;28;20334;-79
2022/12/12 00:04:03;;;;;;;0.10;0.10;;;1.30;99.90;;;;;;5071558;28;20308;-79
2022/12/12 00:06:30;;;;;;;0.10;0.10;;;1.30;99.90;;;;;;5070111;28;20299;-79
2022/12/12 00:08:55;;;;;;;0.10;0.10;;;1.30;99.90;;;;;;5069741;28;20198;-79
2022/12/12 00:11:22;;;;;;;0.07;0.07;;;1.30;99.90;;;;;;5070164;28;20227;-79
2022/12/12 00:13:48;;;;;;;0.10;0.10;;;1.30;99.90;;;;;;5070231;28;20196;-79
2022/12/12 00:16:14;;;;;;;0.10;0.10;;;1.30;99.90;;;;;;5085773;28;20298;-79
2022/12/12 00:18:40;;;;;;;0.00;0.00;;;1.30;99.90;;;;;;5085308;28;20287;-80
2022/12/12 00:21:11;;;;;;;0.00;0.00;;;1.00;99.90;;;;;;5069308;28;20676;-79
2022/12/12 00:23:37;;;;;;;0.10;0.10;;;1.00;99.90;;;;;;5069951;28;20287;-80
2022/12/12 00:26:06;;;;;;;0.10;0.10;;;1.00;99.90;;;;;;5086744;28;20298;-79
2022/12/12 00:28:32;;;;;;;0.10;0.10;;;0.90;99.90;;;;;;5071063;28;20212;-79
2022/12/12 00:30:58;;;;;;;0.10;0.10;;;0.80;99.90;;;;;;5071363;28;20300;-79
2022/12/12 00:33:23;;;;;;;0.10;0.10;;;0.70;99.90;;;;;;5084602;28;20286;-79
2022/12/12 00:35:51;;;;;;;0.03;0.03;;;0.70;99.90;;;;;;5086296;28;20196;-79
2022/12/12 00:38:17;;;;;;;0.10;0.10;;;0.70;99.90;;;;;;5086548;28;20218;-81
2022/12/12 00:40:43;;;;;;;0.10;0.10;;;0.70;99.90;;;;;;5085425;28;21075;-81
2022/12/12 00:43:09;;;;;;;0.00;0.00;;;0.70;99.90;;;;;;5086300;28;20186;-81
2022/12/12 00:45:36;;;;;;;0.00;0.00;;;0.80;99.90;;;;;;5084939;28;20663;-81
2022/12/12 00:48:03;;;;;;;0.10;0.10;;;0.90;99.90;;;;;;5085078;28;20302;-81
2022/12/12 00:50:28;;;;;;;0.10;0.10;;;1.10;99.90;;;;;;5069986;28;20195;-82
2022/12/12 00:52:56;;;;;;;0.10;0.10;;;1.20;99.90;;;;;;5085782;28;20803;-81
2022/12/12 00:55:22;;;;;;;0.10;0.10;;;1.30;99.90;;;;;;5085318;28;21553;-81
2022/12/12 00:57:48;;;;;;;0.10;0.10;;;1.30;99.90;;;;;;5085976;28;20724;-81
2022/12/12 01:00:14;;;;;;;0.03;0.03;;;1.20;99.90;;;;;;5087667;28;20187;-81
2022/12/12 01:02:40;;;;;;;0.10;0.10;;;1.20;99.90;;;;;;5085875;28;20197;-81
2022/12/12 01:05:06;;;;;;;0.10;0.10;;;1.20;99.90;;;;;;5085261;28;20182;-81
2022/12/12 01:07:32;;;;;;;0.00;0.00;;;1.10;99.90;;;;;;5084767;28;20197;-81
2022/12/12 01:09:57;;;;;;;0.10;0.10;;;1.30;99.90;;;;;;5073914;28;20565;-81
2022/12/12 01:12:23;;;;;;;0.10;0.10;;;1.40;99.90;;;;;;5056138;28;20295;-81
2022/12/12 01:14:48;;;;;;;0.10;0.10;;;1.40;99.90;;;;;;5057019;28;20227;-81
2022/12/12 01:17:14;;;;;;;0.10;0.10;;;1.50;99.90;;;;;;5056281;28;20223;-81
2022/12/12 01:19:40;;;;;;;0.10;0.10;;;1.60;99.90;;;;;;5071921;28;20329;-81
2022/12/12 01:22:05;;;;;;;0.10;0.10;;;1.70;99.90;;;;;;5071015;28;20243;-82
2022/12/12 01:24:31;;;;;;;0.10;0.10;;;1.70;99.90;;;;;;5071972;28;20222;-81
2022/12/12 01:26:56;;;;;;;0.10;0.10;;;1.80;99.90;;;;;;5056695;28;20215;-81
2022/12/12 01:29:22;;;;;;;0.10;0.10;;;1.80;99.90;;;;;;5070604;28;20666;-81
2022/12/12 01:31:47;;;;;;;0.07;0.07;;;1.80;99.90;;;;;;5070212;28;20194;-82
2022/12/12 01:34:13;;;;;;;0.10;0.10;;;1.70;99.90;;;;;;5055991;28;20718;-81
2022/12/12 01:36:38;;;;;;;0.00;0.00;;;1.80;99.90;;;;;;5069571;28;22147;-82
2022/12/12 01:39:04;;;;;;;0.10;0.10;;;1.80;99.90;;;;;;5072033;28;20691;-81
2022/12/12 01:41:31;;;;;;;0.03;0.03;;;1.80;99.90;;;;;;5070649;28;20180;-81
2022/12/12 01:44:00;;;;;;;0.10;0.10;;;1.70;99.90;;;;;;5071998;28;20176;-81
2022/12/12 01:46:38;;;;;;;0.00;0.00;;;1.80;99.90;;;;;;5055705;28;20797;-81
2022/12/12 01:49:24;;;;;;;0.10;0.10;;;1.80;99.90;;;;;;5054069;28;20182;-81
2022/12/12 01:51:55;;;;;;;0.10;0.10;;;1.80;99.90;;;;;;5055328;28;20329;-81
2022/12/12 01:54:27;;;;;;;0.10;0.10;;;1.90;99.90;;;;;;5055682;28;20193;-81
2022/12/12 01:56:56;;;;;;;0.10;0.10;;;2.00;99.90;;;;;;5054207;28;20308;-81
2022/12/12 01:59:24;;;;;;;0.00;0.00;;;1.90;99.90;;;;;;5055089;28;20183;-81
2022/12/12 02:01:51;;;;;;;0.10;0.10;;;1.90;99.90;;;;;;5068468;28;20188;-81
2022/12/12 02:04:17;;;;;;;0.10;0.10;;;2.10;99.90;;;;;;5068767;28;20195;-82
2022/12/12 02:06:43;;;;;;;0.10;0.10;;;2.10;99.90;;;;;;5057179;28;20243;-82
2022/12/12 02:09:12;;;;;;;0.10;0.10;;;2.10;99.90;;;;;;5052924;28;20187;-81
2022/12/12 02:11:48;;;;;;;0.10;0.10;;;2.10;99.90;;;;;;5052517;28;20181;-82
2022/12/12 02:14:19;;;;;;;0.10;0.10;;;2.10;99.90;;;;;;5053494;28;20226;-81
2022/12/12 02:16:45;;;;;;;0.07;0.07;;;2.10;99.90;;;;;;5069068;28;20211;-81
2022/12/12 02:19:44;;;;;;;0.10;0.10;;;2.10;99.90;;;;;;5068451;28;20664;-81
2022/12/12 02:22:31;;;;;;;0.10;0.10;;;2.10;99.90;;;;;;5069489;28;20193;-81
2022/12/12 02:24:59;;;;;;;0.10;0.10;;;2.10;99.90;;;;;;5069398;28;20200;-81
2022/12/12 02:27:58;;;;;;;0.10;0.10;;;2.10;99.90;;;;;;5069138;28;20570;-81
2022/12/12 02:30:39;;;;;;;0.10;0.10;;;2.10;99.90;;;;;;5069236;28;20204;-81
2022/12/12 02:33:28;;;;;;;0.07;0.07;;;2.10;99.90;;;;;;5053208;28;20194;-81
2022/12/12 02:36:03;;;;;;;0.10;0.10;;;2.00;99.90;;;;;;5069364;28;20878;-81
2022/12/12 02:39:08;;;;;;;0.10;0.10;;;2.00;99.90;;;;;;5067010;28;20706;-81
2022/12/12 02:41:42;;;;;;;0.10;0.10;;;2.10;99.90;;;;;;4979022;28;20183;-81
2022/12/12 02:44:34;;;;;;;0.10;0.10;;;2.20;99.90;;;;;;5047025;28;20200;-81
2022/12/12 02:47:06;;;;;;;0.10;0.10;;;2.20;99.90;;;;;;5069115;28;20200;-81
2022/12/12 02:49:39;;;;;;;0.10;0.10;;;2.20;99.90;;;;;;5068144;28;20319;-81
2022/12/12 02:52:07;;;;;;;0.00;0.00;;;2.20;99.90;;;;;;5066077;28;20268;-81
2022/12/12 02:54:33;;;;;;;0.00;0.00;;;2.20;99.90;;;;;;5068472;28;20183;-81
2022/12/12 02:57:00;;;;;;;0.03;0.03;;;2.20;99.90;;;;;;5051561;28;21117;-81
2022/12/12 02:59:43;;;;;;;0.10;0.10;;;2.10;99.90;;;;;;5068501;28;20182;-81
2022/12/12 03:02:49;;;;;;;0.10;0.10;;;2.20;99.90;;;;;;5050538;28;20189;-81
2022/12/12 03:08:23;;;;;;;0.10;0.10;;;2.10;99.90;;;;;;5053890;28;20577;-81
2022/12/12 03:10:57;;;;;;;0.10;0.10;;;2.00;99.90;;;;;;5053473;28;20673;-81
2022/12/12 03:13:47;;;;;;;0.10;0.10;;;1.70;99.90;;;;;;5051096;28;20184;-81
2022/12/12 03:16:49;;;;;;;0.10;0.10;;;1.60;99.90;;;;;;5068593;28;20279;-81
2022/12/12 03:19:39;;;;;;;0.10;0.10;;;1.60;99.90;;;;;;5066920;28;20821;-81
2022/12/12 03:22:09;;;;;;;0.20;0.20;;;1.60;99.90;;;;;;5052746;28;20710;-81
2022/12/12 03:25:07;;;;;;;0.10;0.10;;;1.70;99.90;;;;;;5068013;28;20777;-81
2022/12/12 03:28:02;;;;;;;0.10;0.10;;;1.80;99.90;;;;;;5069295;28;20244;-81
2022/12/12 03:30:36;;;;;;;0.10;0.10;;;1.50;99.90;;;;;;5067161;28;20198;-81
2022/12/12 03:33:20;;;;;;;0.10;0.10;;;1.60;99.90;;;;;;5069177;28;20212;-81
2022/12/12 03:36:11;;;;;;;0.10;0.10;;;1.70;99.90;;;;;;5067380;28;20190;-81
2022/12/12 03:38:41;;;;;;;0.00;0.00;;;1.80;99.90;;;;;;5051691;28;20209;-81
2022/12/12 03:41:13;;;;;;;0.10;0.10;;;1.90;99.90;;;;;;5067022;28;20328;-81
2022/12/12 03:43:55;;;;;;;0.00;0.00;;;2.10;99.90;;;;;;5055014;28;20175;-81
2022/12/12 03:46:31;;;;;;;0.10;0.10;;;2.10;99.90;;;;;;5049838;28;20187;-81
2022/12/12 03:49:05;;;;;;;0.10;0.10;;;2.10;99.90;;;;;;5069299;28;20183;-81
2022/12/12 03:51:38;;;;;;;0.10;0.10;;;2.10;99.90;;;;;;5050789;28;20256;-82
2022/12/12 03:54:30;;;;;;;0.10;0.10;;;2.10;99.90;;;;;;5050449;28;20651;-81
2022/12/12 03:57:09;;;;;;;0.10;0.10;;;2.10;99.90;;;;;;5050310;28;20249;-81
2022/12/12 03:59:43;;;;;;;0.10;0.10;;;2.10;99.90;;;;;;5068807;28;20183;-81
2022/12/12 04:02:14;;;;;;;0.10;0.10;;;2.10;99.90;;;;;;5064957;28;20188;-81
2022/12/12 04:05:06;;;;;;;0.10;0.10;;;2.00;99.90;;;;;;5068417;28;20596;-80
2022/12/12 04:07:40;;;;;;;0.10;0.10;;;2.10;99.90;;;;;;5053059;28;20239;-81
2022/12/12 04:13:02;;;;;;;0.10;0.10;;;2.00;99.90;;;;;;5054645;28;20202;-81
2022/12/12 04:15:34;;;;;;;0.10;0.10;;;2.00;99.90;;;;;;5054372;28;20198;-81
2022/12/12 04:18:36;;;;;;;0.10;0.10;;;1.90;99.90;;;;;;5052885;28;20210;-81
2022/12/12 04:24:45;;;;;;;0.10;0.10;;;1.50;99.90;;;;;;5054753;28;20193;-81
2022/12/12 04:27:47;;;;;;;0.00;0.00;;;1.60;99.90;;;;;;5068629;28;20270;-81
2022/12/12 04:30:14;;;;;;;0.10;0.10;;;1.70;99.90;;;;;;5034040;28;20697;-81
2022/12/12 04:32:58;;;;;;;0.10;0.10;;;1.80;99.90;;;;;;5053732;28;20278;-82
2022/12/12 04:35:35;;;;;;;0.10;0.10;;;1.90;99.90;;;;;;5054597;28;20176;-81
2022/12/12 04:38:12;;;;;;;0.10;0.10;;;1.90;99.90;;;;;;5056544;28;20288;-82
2022/12/12 04:40:42;;;;;;;0.10;0.10;;;2.00;99.90;;;;;;5053023;28;20185;-81
2022/12/12 04:43:16;;;;;;;0.10;0.10;;;2.00;99.90;;;;;;5053661;28;20195;-82
2022/12/12 04:45:56;;;;;;;0.00;0.00;;;2.10;99.90;;;;;;5057534;28;20675;-82
2022/12/12 04:48:28;;;;;;;0.10;0.10;;;2.00;99.90;;;;;;5073021;28;20323;-82
2022/12/12 04:50:54;;;;;;;0.10;0.10;;;2.10;99.90;;;;;;5057873;28;20179;-81
2022/12/12 04:53:28;;;;;;;0.00;0.00;;;2.10;99.90;;;;;;5058791;28;20194;-82
2022/12/12 04:55:59;;;;;;;0.10;0.10;;;2.10;99.90;;;;;;5072848;28;20533;-81
2022/12/12 04:58:26;;;;;;;0.10;0.10;;;2.20;99.90;;;;;;5057345;28;20218;-81
2022/12/12 05:00:57;;;;;;;0.10;0.10;;;2.20;99.90;;;;;;5058900;28;20647;-81
2022/12/12 05:03:41;;;;;;;0.00;0.00;;;2.10;99.90;;;;;;5073334;28;20188;-82
2022/12/12 05:06:11;;;;;;;0.10;0.10;;;2.00;99.90;;;;;;5072886;28;20202;-82
2022/12/12 05:08:43;;;;;;;0.10;0.10;;;2.10;99.90;;;;;;5055497;28;20229;-81
2022/12/12 05:11:10;;;;;;;0.10;0.10;;;2.10;99.90;;;;;;5055986;28;20684;-81
2022/12/12 05:13:39;;;;;;;1.43;1.43;;;2.10;99.90;;;;;;5059050;28;20186;-81
2022/12/12 05:16:17;;;;;;;0.10;0.10;;;2.10;99.90;;;;;;5056284;28;20187;-82
2022/12/12 05:18:43;;;;;;;0.10;0.10;;;2.10;99.90;;;;;;5072624;28;20693;-82
2022/12/12 05:21:09;;;;;;;0.10;0.10;;;2.20;99.90;;;;;;5070936;28;20239;-81
2022/12/12 05:23:34;;;;;;;0.00;0.00;;;1.60;99.90;;;;;;5071912;28;20245;-80
2022/12/12 05:26:06;;;;;;;0.00;0.00;;;1.30;99.90;;;;;;5058733;28;20192;-82
2022/12/12 05:28:31;;;;;;;0.00;0.00;;;1.30;99.90;;;;;;5071224;28;20210;-81
2022/12/12 05:30:57;;;;;;;0.10;0.10;;;1.50;99.90;;;;;;5073509;28;20191;-82
2022/12/12 05:33:22;;;;;;;0.10;0.10;;;1.30;99.90;;;;;;5070831;28;20215;-82
2022/12/12 05:35:48;;;;;;;0.10;0.10;;;1.30;99.90;;;;;;5056823;28;20186;-81
2022/12/12 05:38:13;;;;;;;0.07;0.07;;;1.30;99.90;;;;;;5073237;28;20733;-82
2022/12/12 05:40:39;;;;;;;0.10;0.10;;;1.10;99.90;;;;;;5072909;28;20537;-82
2022/12/12 05:43:04;;;;;;;0.10;0.10;;;1.20;99.90;;;;;;5071658;28;20192;-81
2022/12/12 05:45:30;;;;;;;0.10;0.10;;;1.30;99.90;;;;;;5057265;28;20177;-82
2022/12/12 05:47:56;;;;;;;0.10;0.10;;;1.50;99.90;;;;;;5072552;28;21031;-81
2022/12/12 05:50:22;;;;;;;0.07;0.07;;;1.60;99.90;;;;;;5071824;28;20190;-82
2022/12/12 05:52:48;;;;;;;0.10;0.10;;;1.70;99.90;;;;;;5058697;28;20188;-80
2022/12/12 05:55:13;;;;;;;0.10;0.10;;;1.80;99.90;;;;;;5059080;28;20694;-82
2022/12/12 05:57:39;;;;;;;0.00;0.00;;;1.60;99.90;;;;;;5070636;28;20215;-80
2022/12/12 06:00:05;;;;;;;0.10;0.10;;;1.40;99.90;;;;;;5054253;28;20199;-81
2022/12/12 06:02:31;;;;;;;0.10;0.10;;;1.50;99.90;;;;;;5057119;28;20258;-80
2022/12/12 06:04:56;;;;;;;0.00;0.00;;;1.60;99.90;;;;;;5055732;28;20274;-81
2022/12/12 06:07:23;;;;;;;0.10;0.10;;;1.80;99.90;;;;;;5054448;28;20230;-81
2022/12/12 06:09:49;;;;;;;0.10;0.10;;;1.80;99.90;;;;;;5057163;28;20661;-81
2022/12/12 06:12:14;;;;;;;0.10;0.10;;;1.90;99.90;;;;;;5053858;28;20255;-83
2022/12/12 06:14:40;;;;;;;0.00;0.00;;;1.60;99.90;;;;;;5070338;28;20567;-82
2022/12/12 06:17:05;;;;;;;0.10;0.10;;;1.50;99.90;;;;;;5073674;28;20697;-82
2022/12/12 06:19:31;;;;;;;0.10;0.10;;;1.60;99.90;;;;;;5071828;28;20269;-81
2022/12/12 06:21:56;;;;;;;0.10;0.10;;;1.80;99.90;;;;;;5057247;28;20192;-82
2022/12/12 06:24:22;;;;;;;0.10;0.10;;;1.80;99.90;;;;;;5057316;28;20251;-83
2022/12/12 06:26:47;;;;;;;0.10;0.10;;;1.80;99.90;;;;;;5070584;28;20226;-83
2022/12/12 06:29:13;;;;;;;0.10;0.10;;;1.90;99.90;;;;;;5071244;28;20176;-83
2022/12/12 06:31:39;;;;;;;0.00;0.00;;;2.00;99.90;;;;;;5053215;28;20193;-83
2022/12/12 06:34:05;;;;;;;0.10;0.10;;;2.00;99.90;;;;;;5055201;28;20191;-84
2022/12/12 06:36:31;;;;;;;0.10;0.10;;;1.80;99.90;;;;;;5067522;28;20189;-83
2022/12/12 06:38:58;;;;;;;0.10;0.10;;;1.60;99.90;;;;;;5055060;28;20208;-82
2022/12/12 06:41:26;;;;;;;0.10;0.10;;;1.70;99.90;;;;;;5069647;28;20188;-83
2022/12/12 06:43:52;;;;;;;0.10;0.10;;;1.50;99.90;;;;;;5055901;28;20193;-82
2022/12/12 06:46:22;;;;;;;0.10;0.10;;;1.20;99.90;;;;;;5068857;28;20587;-82
2022/12/12 06:48:51;;;;;;;0.10;0.10;;;1.00;99.90;;;;;;5054182;28;20710;-83
2022/12/12 06:51:25;;;;;;;0.10;0.10;;;1.00;99.90;;;;;;5052687;28;20183;-82
2022/12/12 06:53:51;;;;;;;0.10;0.10;;;1.00;99.90;;;;;;5068537;28;20276;-83
2022/12/12 06:56:23;;;;;;;0.10;0.10;;;1.10;99.90;;;;;;5069695;28;20203;-82
2022/12/12 06:58:48;;;;;;;0.10;0.10;;;1.30;99.90;;;;;;5050490;28;20709;-83
2022/12/12 07:01:19;;;;;;;0.10;0.10;;;1.40;99.90;;;;;;5069878;28;20195;-83
2022/12/12 07:03:45;;;;;;;0.10;0.10;;;1.60;99.90;;;;;;5055301;28;20193;-82
2022/12/12 07:06:11;;;;;;;0.10;0.10;;;1.70;99.90;;;;;;5054871;28;20192;-82
2022/12/12 07:08:38;;;;;;;0.10;0.10;;;1.80;99.90;;;;;;5063951;28;20677;-82
2022/12/12 07:11:05;;;;;;;0.10;0.10;;;1.80;99.90;;;;;;5063887;28;20693;-83
2022/12/12 07:13:31;;;;;;;0.10;0.10;;;1.80;99.90;;;;;;5040225;28;20307;-84
2022/12/12 07:15:57;;;;;;;0.10;0.10;;;1.80;99.90;;;;;;5066898;28;20401;-82
2022/12/12 07:18:24;;;;;;;0.90;0.90;;;1.90;99.90;;;;;;5049045;28;20629;-82
2022/12/12 07:20:50;;;;;;;0.00;0.00;;;1.90;99.90;;;;;;5052194;28;20189;-83
2022/12/12 07:23:15;;;;;;;0.00;0.00;;;2.00;99.90;;;;;;5053511;28;20320;-81
2022/12/12 07:25:43;;;;;;;0.10;0.10;;;2.00;99.90;;;;;;5053908;28;20291;-83
2022/12/12 07:28:10;;;;;;;0.10;0.10;;;2.00;99.90;;;;;;5066657;28;20289;-84
2022/12/12 07:30:42;;;;;;;0.00;0.00;;;2.00;99.90;;;;;;5068054;28;20199;-82
2022/12/12 07:33:09;;;;;;;0.10;0.10;;;2.10;99.90;;;;;;5052557;28;20240;-82
2022/12/12 07:35:35;;;;;;;0.07;0.07;;;2.10;99.90;;;;;;5053411;28;20209;-82
2022/12/12 07:38:00;;;;;;;0.17;0.17;;;2.10;99.90;;;;;;5067287;28;20368;-83
2022/12/12 07:40:26;;;;;;;0.10;0.10;;;2.20;99.90;;;;;;5049997;28;20713;-82
2022/12/12 07:42:51;;;;;;;0.10;0.10;;;2.10;99.90;;;;;;5053548;28;20213;-82
2022/12/12 07:45:18;;;;;;;0.10;0.10;;;2.10;99.90;;;;;;5051589;28;20226;-83
2022/12/12 07:47:43;;;;;;;0.10;0.10;;;2.10;99.90;;;;;;5052682;28;20252;-84
2022/12/12 07:50:09;;;;;;;0.10;0.10;;;2.00;99.90;;;;;;5051582;28;20228;-83
2022/12/12 07:52:35;;;;;;;0.10;0.10;;;2.10;99.90;;;;;;5068636;28;20283;-83
2022/12/12 07:55:01;;;;;;;0.10;0.10;;;2.20;99.90;;;;;;5052259;28;20196;-82
2022/12/12 07:57:27;;;;;;;0.10;0.10;;;2.20;99.90;;;;;;5050810;28;20215;-84
2022/12/12 07:59:53;;;;;;;0.00;0.00;;;2.40;99.90;;;;;;5066708;28;20187;-82
2022/12/12 08:02:18;;;;;;;0.10;0.10;;;2.10;99.90;;;;;;5066903;28;20531;-83
2022/12/12 08:04:44;;;;;;;0.10;0.10;;;1.80;99.90;;;;;;5053134;28;20197;-83
2022/12/12 08:07:09;;;;;;;0.10;0.10;;;1.70;99.90;;;;;;5049583;28;20239;-82
2022/12/12 08:09:35;;;;;;;0.10;0.10;;;1.50;99.90;;;;;;5049427;28;20194;-81
2022/12/12 08:12:01;;;;;;;0.10;0.10;;;1.30;99.90;;;;;;5051290;28;20303;-81
2022/12/12 08:14:27;;;;;;;0.00;0.00;;;1.20;99.90;;;;;;5052943;28;20293;-82
2022/12/12 08:16:53;;;;;;;0.10;0.10;;;1.20;99.90;;;;;;5049630;28;20305;-82
2022/12/12 08:19:18;;;;;;;0.10;0.10;;;1.30;99.90;;;;;;5052300;28;20600;-82
2022/12/12 08:21:44;;;;;;;0.10;0.10;;;1.30;99.90;;;;;;5072366;28;20211;-83
2022/12/12 08:24:12;;;;;;;0.10;0.10;;;1.50;99.90;;;;;;5056869;28;20201;-82
2022/12/12 08:26:38;;;;;;;0.00;0.00;;;1.80;99.90;;;;;;5058110;28;21330;-81
2022/12/12 08:29:04;;;;;;;0.10;0.10;;;2.00;99.90;;;;;;5072730;28;20190;-81
2022/12/12 08:31:30;;;;;;;0.00;0.00;;;1.90;99.90;;;;;;5054941;28;20215;-80
2022/12/12 08:33:57;;;;;;;0.00;0.00;;;2.00;99.90;;;;;;5073196;28;20214;-83
2022/12/12 08:36:29;;;;;;;0.10;0.10;;;2.00;99.90;;;;;;5057043;28;20192;-81
2022/12/12 08:38:54;;;;;;;0.10;0.10;;;2.10;99.90;;;;;;5057222;28;20237;-81
2022/12/12 08:41:20;;;;;;;0.10;0.10;;;1.80;99.90;;;;;;5072143;28;20221;-82
2022/12/12 08:43:46;;;;;;;0.10;0.10;;;1.70;99.90;;;;;;5071625;28;20881;-83
2022/12/12 08:46:13;;;;;;;0.00;0.00;;;1.70;99.90;;;;;;5073052;28;20268;-81
2022/12/12 08:48:39;;;;;;;0.10;0.10;;;1.70;99.90;;;;;;5056477;28;20204;-82
2022/12/12 08:51:05;;;;;;;0.10;0.10;;;1.90;99.90;;;;;;5057088;28;20200;-82
2022/12/12 08:53:31;;;;;;;0.00;0.00;;;2.10;99.90;;;;;;5072862;28;20184;-81
2022/12/12 08:55:56;;;;;;;0.10;0.10;;;2.20;99.90;;;;;;5057309;28;20653;-82
2022/12/12 08:58:22;;;;;;;0.10;0.10;;;2.40;99.90;;;;;;5070644;28;20837;-82
2022/12/12 09:00:48;;;;;;;0.10;0.10;;;2.50;99.90;;;;;;5056472;28;20585;-82
2022/12/12 09:03:13;;;;;;;0.10;0.10;;;2.70;99.90;;;;;;5055062;28;20268;-83
2022/12/12 09:05:43;;;;;;;0.10;0.10;;;2.80;99.90;;;;;;5070735;28;20239;-81
2022/12/12 09:08:09;;;;;;;0.10;0.10;;;2.70;99.90;;;;;;5053570;28;20286;-81
2022/12/12 09:10:35;;;;;;;0.10;0.10;;;2.60;99.90;;;;;;5056230;28;20192;-82
2022/12/12 09:13:00;;;;;;;0.00;0.00;;;2.70;99.90;;;;;;5071436;28;20191;-81
2022/12/12 09:15:26;;;;;;;0.10;0.10;;;2.90;99.90;;;;;;5056132;28;20195;-82
2022/12/12 09:17:51;;;;;;;0.10;0.10;;;3.00;99.90;;;;;;5071874;28;20244;-82
2022/12/12 09:20:17;;;;;;;0.10;0.10;;;3.10;99.90;;;;;;5069949;28;20239;-82
2022/12/12 09:22:42;;;;;;;0.10;0.10;;;3.20;99.90;;;;;;5054351;28;20756;-82
2022/12/12 09:25:09;;;;;;;0.10;0.10;;;3.20;99.90;;;;;;5070144;28;20251;-81
2022/12/12 09:27:34;;;;;;;0.10;0.10;;;3.30;99.90;;;;;;5067823;28;20251;-83
2022/12/12 09:30:00;;;;;;;0.10;0.10;;;3.30;99.90;;;;;;5069212;28;20212;-81
2022/12/12 09:32:26;;;;;;;0.03;0.03;;;3.40;99.90;;;;;;5069905;28;20187;-80
2022/12/12 09:34:51;;;;;;;0.10;0.10;;;3.00;99.90;;;;;;5055984;28;20259;-79
2022/12/12 09:37:17;;;;;;;0.10;0.10;;;2.40;99.90;;;;;;5070571;28;20223;-80
2022/12/12 09:39:42;;;;;;;0.10;0.10;;;2.30;99.90;;;;;;5071898;28;20188;-81
2022/12/12 09:42:24;;;;;;;0.00;0.00;;;2.50;99.90;;;;;;5068974;28;20191;-79
2022/12/12 09:45:00;;;;;;;0.00;0.00;;;2.90;99.90;;;;;;5055639;28;20269;-80
2022/12/12 09:47:40;;;;;;;0.10;0.10;;;3.00;99.90;;;;;;5066940;28;20216;-79
2022/12/12 09:50:26;;;;;;;0.10;0.10;;;3.20;99.90;;;;;;5052779;28;20191;-79
2022/12/12 09:52:56;;;;;;;0.10;0.10;;;3.30;99.90;;;;;;5056566;28;20650;-79
2022/12/12 09:55:30;;;;;;;0.10;0.10;;;3.40;99.90;;;;;;5053485;28;20195;-80
2022/12/12 09:58:07;;;;;;;0.10;0.10;;;3.20;99.90;;;;;;5054579;28;20220;-80
2022/12/12 10:00:37;;;;;;;0.10;0.10;;;2.90;99.90;;;;;;5053624;28;20320;-80
2022/12/12 10:03:08;;;;;;;0.10;0.10;;;2.60;99.90;;;;;;5053434;28;20188;-79
2022/12/12 10:06:02;;;;;;;0.10;0.10;;;2.60;99.90;;;;;;5070087;28;20194;-79
2022/12/12 10:08:47;;;;;;;0.33;0.33;;;2.90;99.90;;;;;;5069851;28;20208;-80
2022/12/12 10:14:09;;;;;;;0.10;0.10;;;2.80;99.90;;;;;;5054983;28;20289;-82
2022/12/12 10:16:34;;;;;;;0.10;0.10;;;2.40;99.90;;;;;;5069360;28;20992;-82
2022/12/12 10:19:11;;;;;;;0.10;0.10;;;2.00;99.90;;;;;;5065832;28;20208;-83
2022/12/12 10:21:39;;;;;;;0.10;0.10;;;2.40;99.90;;;;;;5067713;28;20183;-82
2022/12/12 10:24:17;;;;;;;0.10;0.10;;;2.70;99.90;;;;;;5069196;28;20193;-82
2022/12/12 10:26:43;;;;;;;0.00;0.00;;;2.50;99.90;;;;;;5067200;28;20190;-81
2022/12/12 10:29:25;;;;;;;0.10;0.10;;;2.80;99.90;;;;;;5064838;28;20193;-85
2022/12/12 10:31:55;;;;;;;0.10;0.10;;;2.80;99.90;;;;;;5054607;28;20189;-84
2022/12/12 10:34:50;;;;;;;0.10;0.10;;;2.80;99.90;;;;;;5070143;28;20191;-84
2022/12/12 10:37:34;;;;;;;0.10;0.10;;;3.10;99.90;;;;;;5069652;28;20223;-84
2022/12/12 10:40:27;;;;;;;1.60;1.53;;;3.10;99.90;;;;;;5056510;28;20185;-85
2022/12/12 10:43:52;;;;;;;0.50;0.50;;;3.20;99.90;;;;;;5070752;28;20275;-85
2022/12/12 10:46:31;;;;;;;0.10;0.10;;;2.90;99.90;;;;;;5025657;28;20205;-85
2022/12/12 10:48:57;;;;;;;0.00;0.00;;;3.10;99.90;;;;;;5069119;28;20628;-83
2022/12/12 10:51:24;;;;;;;0.10;0.10;;;3.20;99.90;;;;;;5068949;28;20292;-82
2022/12/12 10:53:51;;;;;;;0.10;0.10;;;2.90;99.90;;;;;;5070640;28;20226;-82
2022/12/12 10:56:26;;;;;;;0.10;0.10;;;3.20;99.90;;;;;;5052689;28;20200;-83
2022/12/12 10:59:00;;;;;;;0.10;0.10;;;3.40;99.90;;;;;;5067214;28;20224;-82
2022/12/12 11:01:29;;;;;;;0.00;0.00;;;3.50;99.90;;;;;;5051819;28;20192;-84
2022/12/12 11:03:56;;;;;;;0.10;0.10;;;3.70;99.90;;;;;;5068528;28;20236;-84
2022/12/12 11:06:37;;;;;;;0.10;0.10;;;3.10;99.90;;;;;;5067452;28;20191;-84
2022/12/12 11:09:14;;;;;;;0.00;0.00;;;3.30;99.90;;;;;;5070933;28;20184;-84
2022/12/12 11:11:40;;;;;;;0.00;0.00;;;3.40;99.90;;;;;;5070281;28;20222;-86
2022/12/12 11:14:25;;;;;;;0.10;0.10;;;3.50;99.90;;;;;;5068245;28;20855;-82
2022/12/12 11:16:51;;;;;;;0.10;0.10;;;3.80;99.90;;;;;;5052533;28;20223;-83
2022/12/12 11:19:18;;;;;;;0.10;0.10;;;3.90;99.90;;;;;;5051965;28;22022;-82
2022/12/12 11:21:44;;;;;;;0.10;0.10;;;4.00;99.90;;;;;;5052542;28;20188;-82
2022/12/12 11:24:17;;;;;;;0.00;0.00;;;3.80;99.90;;;;;;5066771;28;20341;-81
2022/12/12 11:26:49;;;;;;;0.00;0.00;;;3.80;99.90;;;;;;5051515;28;20182;-82
2022/12/12 11:29:45;;;;;;;0.10;0.10;;;3.80;99.90;;;;;;5065656;28;20618;-84
2022/12/12 11:32:27;;;;;;;0.10;0.10;;;3.80;99.90;;;;;;5050554;28;20200;-83
2022/12/12 11:35:00;;;;;;;0.10;0.10;;;4.00;99.90;;;;;;5050930;28;20227;-81
2022/12/12 11:37:35;;;;;;;0.10;0.10;;;4.10;99.90;;;;;;5064360;28;20563;-82
2022/12/12 11:40:01;;;;;;;0.10;0.10;;;4.20;99.90;;;;;;5063315;28;20218;-82
2022/12/12 11:42:29;;;;;;;0.10;0.10;;;4.20;99.90;;;;;;5051926;28;20181;-82
2022/12/12 11:45:22;;;;;;;0.10;0.10;;;4.20;99.90;;;;;;5068225;28;20200;-83
2022/12/12 11:47:48;;;;;;;0.00;0.00;;;4.10;99.90;;;;;;5068921;28;20596;-83
2022/12/12 11:50:24;;;;;;;0.10;0.10;;;4.10;99.90;;;;;;5053548;28;20185;-83
2022/12/12 11:52:56;;;;;;;0.10;0.10;;;4.10;99.90;;;;;;5053759;28;20193;-82
2022/12/12 11:55:37;;;;;;;0.10;0.10;;;3.70;99.90;;;;;;5054664;28;20197;-83
2022/12/12 11:58:21;;;;;;;0.10;0.10;;;3.20;99.90;;;;;;5053141;28;20331;-82
2022/12/12 12:01:21;;;;;;;9.10;8.13;;;3.40;99.90;;;;;;5066554;28;20184;-83
2022/12/12 12:03:55;;;;;;;0.10;0.10;;;3.70;99.90;;;;;;5065202;28;20205;-83
2022/12/12 12:06:39;;;;;;;0.10;0.10;;;3.90;99.90;;;;;;5063847;28;20189;-83
2022/12/12 12:09:08;;;;;;;0.10;0.10;;;4.00;99.90;;;;;;5065766;28;20232;-82
2022/12/12 12:12:05;;;;;;;0.10;0.10;;;4.10;99.90;;;;;;5066999;28;20189;-82
2022/12/12 12:15:06;;;;;;;0.10;0.10;;;4.10;99.90;;;;;;5064516;28;20594;-82
2022/12/12 12:17:39;;;;;;;0.00;0.00;;;4.20;99.90;;;;;;5050352;28;20216;-81
2022/12/12 12:20:31;;;;;;;0.00;0.00;;;4.20;99.90;;;;;;5052034;28;20177;-81
2022/12/12 12:23:33;;;;;;;0.10;0.10;;;3.40;99.90;;;;;;5016267;28;20193;-83
2022/12/12 12:26:04;;;;;;;0.10;0.10;;;3.50;99.90;;;;;;5066959;28;20674;-81
2022/12/12 12:28:38;;;;;;;0.10;0.10;;;3.60;99.90;;;;;;5046879;28;20241;-84
2022/12/12 12:31:04;;;;;;;0.07;0.07;;;3.80;99.90;;;;;;5068356;28;20190;-81
2022/12/12 12:34:07;;;;;;;0.10;0.10;;;3.90;99.90;;;;;;5052597;28;20188;-85
2022/12/12 12:37:02;;;;;;;0.00;0.00;;;4.00;99.90;;;;;;5065843;28;20307;-83
2022/12/12 12:39:47;;;;;;;0.10;0.10;;;4.10;99.90;;;;;;5043125;28;20724;-82
2022/12/12 12:42:32;;;;;;;0.03;0.03;;;4.10;99.90;;;;;;5053241;28;20192;-84
2022/12/12 12:45:07;;;;;;;0.10;0.10;;;4.20;99.90;;;;;;5053389;28;20188;-83
2022/12/12 12:47:35;;;;;;;0.10;0.10;;;4.10;99.90;;;;;;5065688;28;20215;-82
2022/12/12 12:50:12;;;;;;;0.10;0.10;;;4.20;99.90;;;;;;5051607;28;20186;-83
2022/12/12 12:53:03;;;;;;;0.00;0.00;;;4.30;99.90;;;;;;5052639;28;20182;-81
2022/12/12 12:55:35;;;;;;;0.00;0.00;;;4.10;99.90;;;;;;5044295;28;20201;-83
2022/12/12 12:58:04;;;;;;;0.10;0.10;;;4.00;99.90;;;;;;5063959;28;20271;-83
2022/12/12 13:00:30;;;;;;;0.10;0.10;;;4.00;99.90;;;;;;5053453;28;21090;-80
2022/12/12 13:03:04;;;;;;;0.10;0.10;;;4.10;99.90;;;;;;5050789;28;20193;-80
2022/12/12 13:05:38;;;;;;;0.00;0.00;;;4.00;99.90;;;;;;5067188;28;20245;-82
2022/12/12 13:08:15;;;;;;;0.10;0.10;;;3.90;99.90;;;;;;5071002;28;20213;-81
2022/12/12 13:10:46;;;;;;;0.00;0.00;;;3.90;99.90;;;;;;5071635;28;20302;-80
2022/12/12 13:13:21;;;;;;;0.00;0.00;;;3.90;99.90;;;;;;5054415;28;20284;-80
2022/12/12 13:15:58;;;;;;;0.10;0.10;;;3.90;99.90;;;;;;5055057;28;20263;-80
2022/12/12 13:18:26;;;;;;;0.10;0.10;;;4.00;99.90;;;;;;5067824;28;20217;-79
2022/12/12 13:20:56;;;;;;;0.10;0.10;;;3.90;99.90;;;;;;5069609;28;20235;-79
2022/12/12 13:23:46;;;;;;;0.10;0.10;;;4.00;99.90;;;;;;5054463;28;20197;-80
2022/12/12 13:26:17;;;;;;;0.10;0.10;;;4.00;99.90;;;;;;5050421;28;20946;-80
2022/12/12 13:28:50;;;;;;;0.10;0.10;;;4.00;99.90;;;;;;5067606;28;20215;-79
2022/12/12 13:31:22;;;;;;;0.03;0.03;;;3.80;99.90;;;;;;5054578;28;20210;-80
2022/12/12 13:33:55;;;;;;;0.10;0.10;;;3.80;99.90;;;;;;5069312;28;20201;-80
2022/12/12 13:36:22;;;;;;;0.00;0.00;;;3.90;99.90;;;;;;5054591;28;20193;-80